sensor_id;sensor_type;location;lat;lon;timestamp;P1;durP1;ratioP1;P2;durP2;ratioP2
4202;SDS011;2115;51.038;7.006;2022-12-20T00:02:14;596.93;;;149.17;;
4202;SDS011;2115;51.038;7.006;2022-12-20T00:04:40;594.83;;;146.13;;
4202;SDS011;2115;51.038;7.006;2022-12-20T00:07:05;596.57;;;148.30;;
4202;SDS011;2115;51.038;7.006;2022-12-20T00:09:30;593.30;;;145.50;;
4202;SDS011;2115;51.038;7.006;2022-12-20T00:11:57;593.70;;;147.97;;
4202;SDS011;2115;51.038;7.006;2022-12-20T00:14:22;592.73;;;148.83;;
4202;SDS011;2115;51.038;7.006;2022-12-20T00:16:47;597.90;;;148.80;;
4202;SDS011;2115;51.038;7.006;2022-12-20T00:19:13;606.53;;;151.47;;
4202;SDS011;2115;51.038;7.006;2022-12-20T00:21:38;602.63;;;149.77;;
4202;SDS011;2115;51.038;7.006;2022-12-20T00:24:04;598.07;;;150.43;;
4202;SDS011;2115;51.038;7.006;2022-12-20T00:26:30;613.97;;;155.47;;
4202;SDS011;2115;51.038;7.006;2022-12-20T00:28:56;595.97;;;146.63;;
4202;SDS011;2115;51.038;7.006;2022-12-20T00:31:23;620.87;;;158.00;;
4202;SDS011;2115;51.038;7.006;2022-12-20T00:33:50;597.70;;;144.03;;
4202;SDS011;2115;51.038;7.006;2022-12-20T00:36:16;593.67;;;147.63;;
4202;SDS011;2115;51.038;7.006;2022-12-20T00:38:45;594.80;;;149.63;;
4202;SDS011;2115;51.038;7.006;2022-12-20T00:41:12;596.73;;;150.27;;
4202;SDS011;2115;51.038;7.006;2022-12-20T00:43:40;588.50;;;143.57;;
4202;SDS011;2115;51.038;7.006;2022-12-20T00:46:06;589.77;;;149.03;;
4202;SDS011;2115;51.038;7.006;2022-12-20T00:48:33;586.53;;;144.00;;
4202;SDS011;2115;51.038;7.006;2022-12-20T00:50:59;589.20;;;147.17;;
4202;SDS011;2115;51.038;7.006;2022-12-20T00:53:26;589.10;;;147.47;;
4202;SDS011;2115;51.038;7.006;2022-12-20T00:55:52;590.90;;;147.30;;
4202;SDS011;2115;51.038;7.006;2022-12-20T00:58:17;593.90;;;150.87;;
4202;SDS011;2115;51.038;7.006;2022-12-20T01:00:42;588.50;;;150.40;;
4202;SDS011;2115;51.038;7.006;2022-12-20T01:03:08;593.03;;;146.27;;
4202;SDS011;2115;51.038;7.006;2022-12-20T01:05:33;586.00;;;144.20;;
4202;SDS011;2115;51.038;7.006;2022-12-20T01:07:59;586.40;;;147.07;;
4202;SDS011;2115;51.038;7.006;2022-12-20T01:10:25;596.40;;;149.73;;
4202;SDS011;2115;51.038;7.006;2022-12-20T01:12:51;611.40;;;155.20;;
4202;SDS011;2115;51.038;7.006;2022-12-20T01:15:16;608.60;;;152.63;;
4202;SDS011;2115;51.038;7.006;2022-12-20T01:17:42;594.77;;;148.90;;
4202;SDS011;2115;51.038;7.006;2022-12-20T01:20:07;605.00;;;152.53;;
4202;SDS011;2115;51.038;7.006;2022-12-20T01:22:33;589.73;;;145.57;;
4202;SDS011;2115;51.038;7.006;2022-12-20T01:24:59;600.23;;;147.83;;
4202;SDS011;2115;51.038;7.006;2022-12-20T01:27:24;589.60;;;143.83;;
4202;SDS011;2115;51.038;7.006;2022-12-20T01:29:50;586.00;;;143.30;;
4202;SDS011;2115;51.038;7.006;2022-12-20T01:32:15;593.67;;;144.00;;
4202;SDS011;2115;51.038;7.006;2022-12-20T01:34:40;581.47;;;141.03;;
4202;SDS011;2115;51.038;7.006;2022-12-20T01:37:06;586.10;;;145.47;;
4202;SDS011;2115;51.038;7.006;2022-12-20T01:39:31;580.53;;;138.93;;
4202;SDS011;2115;51.038;7.006;2022-12-20T01:41:56;577.90;;;140.17;;
4202;SDS011;2115;51.038;7.006;2022-12-20T01:46:48;594.00;;;150.70;;
4202;SDS011;2115;51.038;7.006;2022-12-20T01:49:18;578.43;;;141.90;;
4202;SDS011;2115;51.038;7.006;2022-12-20T01:52:01;582.27;;;144.50;;
4202;SDS011;2115;51.038;7.006;2022-12-20T01:54:34;576.70;;;138.33;;
4202;SDS011;2115;51.038;7.006;2022-12-20T01:57:04;587.70;;;144.87;;
4202;SDS011;2115;51.038;7.006;2022-12-20T01:59:32;569.27;;;138.97;;
4202;SDS011;2115;51.038;7.006;2022-12-20T02:02:00;569.97;;;136.77;;
4202;SDS011;2115;51.038;7.006;2022-12-20T02:04:27;574.40;;;140.20;;
4202;SDS011;2115;51.038;7.006;2022-12-20T02:06:52;590.23;;;142.67;;
4202;SDS011;2115;51.038;7.006;2022-12-20T02:09:18;582.57;;;143.63;;
4202;SDS011;2115;51.038;7.006;2022-12-20T02:25:55;568.83;;;137.40;;
4202;SDS011;2115;51.038;7.006;2022-12-20T02:31:33;585.93;;;145.97;;
4202;SDS011;2115;51.038;7.006;2022-12-20T02:34:03;575.63;;;140.87;;
4202;SDS011;2115;51.038;7.006;2022-12-20T02:36:30;567.33;;;137.90;;
4202;SDS011;2115;51.038;7.006;2022-12-20T02:38:55;576.10;;;142.27;;
4202;SDS011;2115;51.038;7.006;2022-12-20T02:44:07;571.93;;;140.60;;
4202;SDS011;2115;51.038;7.006;2022-12-20T02:46:55;568.17;;;139.13;;
4202;SDS011;2115;51.038;7.006;2022-12-20T02:49:24;561.97;;;137.10;;
4202;SDS011;2115;51.038;7.006;2022-12-20T02:51:53;564.50;;;139.30;;
4202;SDS011;2115;51.038;7.006;2022-12-20T02:54:20;571.23;;;138.87;;
4202;SDS011;2115;51.038;7.006;2022-12-20T02:56:49;564.00;;;137.80;;
4202;SDS011;2115;51.038;7.006;2022-12-20T02:59:25;558.70;;;134.23;;
4202;SDS011;2115;51.038;7.006;2022-12-20T03:01:54;563.87;;;137.17;;
4202;SDS011;2115;51.038;7.006;2022-12-20T03:04:22;564.83;;;138.73;;
4202;SDS011;2115;51.038;7.006;2022-12-20T03:07:06;565.27;;;138.80;;
4202;SDS011;2115;51.038;7.006;2022-12-20T03:09:32;570.40;;;142.47;;
4202;SDS011;2115;51.038;7.006;2022-12-20T03:11:59;561.07;;;137.37;;
4202;SDS011;2115;51.038;7.006;2022-12-20T03:14:25;568.67;;;144.90;;
4202;SDS011;2115;51.038;7.006;2022-12-20T03:16:51;561.07;;;139.90;;
4202;SDS011;2115;51.038;7.006;2022-12-20T03:19:17;560.70;;;140.77;;
4202;SDS011;2115;51.038;7.006;2022-12-20T03:21:42;557.70;;;135.40;;
4202;SDS011;2115;51.038;7.006;2022-12-20T03:24:08;574.80;;;142.10;;
4202;SDS011;2115;51.038;7.006;2022-12-20T03:26:35;558.00;;;137.47;;
4202;SDS011;2115;51.038;7.006;2022-12-20T03:29:01;568.90;;;140.73;;
4202;SDS011;2115;51.038;7.006;2022-12-20T03:31:26;566.10;;;138.00;;
4202;SDS011;2115;51.038;7.006;2022-12-20T03:33:52;558.50;;;138.63;;
4202;SDS011;2115;51.038;7.006;2022-12-20T03:36:17;559.20;;;134.80;;
4202;SDS011;2115;51.038;7.006;2022-12-20T03:38:47;571.23;;;144.70;;
4202;SDS011;2115;51.038;7.006;2022-12-20T03:41:13;558.83;;;134.70;;
4202;SDS011;2115;51.038;7.006;2022-12-20T03:43:38;559.87;;;139.70;;
4202;SDS011;2115;51.038;7.006;2022-12-20T03:46:03;566.13;;;139.07;;
4202;SDS011;2115;51.038;7.006;2022-12-20T03:48:29;562.67;;;136.00;;
4202;SDS011;2115;51.038;7.006;2022-12-20T03:50:54;556.40;;;136.17;;
4202;SDS011;2115;51.038;7.006;2022-12-20T03:53:19;573.03;;;142.90;;
4202;SDS011;2115;51.038;7.006;2022-12-20T03:55:45;571.57;;;141.20;;
4202;SDS011;2115;51.038;7.006;2022-12-20T03:58:10;567.47;;;144.77;;
4202;SDS011;2115;51.038;7.006;2022-12-20T04:00:36;565.00;;;140.60;;
4202;SDS011;2115;51.038;7.006;2022-12-20T04:03:01;559.17;;;140.20;;
4202;SDS011;2115;51.038;7.006;2022-12-20T04:05:26;566.83;;;141.00;;
4202;SDS011;2115;51.038;7.006;2022-12-20T04:07:52;582.07;;;145.83;;
4202;SDS011;2115;51.038;7.006;2022-12-20T04:10:17;556.87;;;137.07;;
4202;SDS011;2115;51.038;7.006;2022-12-20T04:12:42;567.00;;;136.80;;
4202;SDS011;2115;51.038;7.006;2022-12-20T04:15:08;563.43;;;134.43;;
4202;SDS011;2115;51.038;7.006;2022-12-20T04:17:33;559.50;;;137.07;;
4202;SDS011;2115;51.038;7.006;2022-12-20T04:19:59;565.53;;;137.40;;
4202;SDS011;2115;51.038;7.006;2022-12-20T04:22:42;563.83;;;137.73;;
4202;SDS011;2115;51.038;7.006;2022-12-20T04:25:09;560.90;;;138.00;;
4202;SDS011;2115;51.038;7.006;2022-12-20T04:27:34;561.77;;;139.53;;
4202;SDS011;2115;51.038;7.006;2022-12-20T04:30:00;562.97;;;138.87;;
4202;SDS011;2115;51.038;7.006;2022-12-20T04:32:25;559.40;;;135.90;;
4202;SDS011;2115;51.038;7.006;2022-12-20T04:34:50;573.17;;;144.10;;
4202;SDS011;2115;51.038;7.006;2022-12-20T04:37:16;581.27;;;143.93;;
4202;SDS011;2115;51.038;7.006;2022-12-20T04:39:41;560.63;;;139.47;;
4202;SDS011;2115;51.038;7.006;2022-12-20T04:42:06;565.53;;;141.87;;
4202;SDS011;2115;51.038;7.006;2022-12-20T04:44:32;558.03;;;140.87;;
4202;SDS011;2115;51.038;7.006;2022-12-20T04:46:57;556.30;;;137.23;;
4202;SDS011;2115;51.038;7.006;2022-12-20T04:49:22;564.87;;;141.73;;
4202;SDS011;2115;51.038;7.006;2022-12-20T04:51:48;553.93;;;133.67;;
4202;SDS011;2115;51.038;7.006;2022-12-20T04:54:13;562.93;;;142.20;;
4202;SDS011;2115;51.038;7.006;2022-12-20T04:56:38;558.70;;;140.83;;
4202;SDS011;2115;51.038;7.006;2022-12-20T04:59:04;551.03;;;138.53;;
4202;SDS011;2115;51.038;7.006;2022-12-20T05:01:29;588.37;;;156.27;;
4202;SDS011;2115;51.038;7.006;2022-12-20T05:03:54;569.77;;;143.97;;
4202;SDS011;2115;51.038;7.006;2022-12-20T05:06:20;561.97;;;140.47;;
4202;SDS011;2115;51.038;7.006;2022-12-20T05:08:45;550.23;;;135.83;;
4202;SDS011;2115;51.038;7.006;2022-12-20T05:11:11;555.90;;;140.10;;
4202;SDS011;2115;51.038;7.006;2022-12-20T05:13:36;556.47;;;138.07;;
4202;SDS011;2115;51.038;7.006;2022-12-20T05:16:02;551.47;;;135.20;;
4202;SDS011;2115;51.038;7.006;2022-12-20T05:18:28;560.13;;;141.83;;
4202;SDS011;2115;51.038;7.006;2022-12-20T05:20:54;558.00;;;137.57;;
4202;SDS011;2115;51.038;7.006;2022-12-20T05:23:38;550.70;;;134.87;;
4202;SDS011;2115;51.038;7.006;2022-12-20T05:26:23;559.07;;;139.80;;
4202;SDS011;2115;51.038;7.006;2022-12-20T05:28:48;553.47;;;135.37;;
4202;SDS011;2115;51.038;7.006;2022-12-20T05:31:14;553.60;;;136.57;;
4202;SDS011;2115;51.038;7.006;2022-12-20T05:33:39;554.53;;;137.13;;
4202;SDS011;2115;51.038;7.006;2022-12-20T05:36:04;555.63;;;140.43;;
4202;SDS011;2115;51.038;7.006;2022-12-20T05:38:30;551.53;;;136.37;;
4202;SDS011;2115;51.038;7.006;2022-12-20T05:40:55;560.47;;;140.10;;
4202;SDS011;2115;51.038;7.006;2022-12-20T05:43:21;554.67;;;136.60;;
4202;SDS011;2115;51.038;7.006;2022-12-20T05:45:46;562.13;;;140.73;;
4202;SDS011;2115;51.038;7.006;2022-12-20T05:48:13;562.10;;;142.50;;
4202;SDS011;2115;51.038;7.006;2022-12-20T05:50:40;560.70;;;137.70;;
4202;SDS011;2115;51.038;7.006;2022-12-20T05:53:05;556.13;;;137.23;;
4202;SDS011;2115;51.038;7.006;2022-12-20T05:55:30;558.80;;;141.57;;
4202;SDS011;2115;51.038;7.006;2022-12-20T05:57:56;563.73;;;139.20;;
4202;SDS011;2115;51.038;7.006;2022-12-20T06:00:21;576.33;;;149.03;;
4202;SDS011;2115;51.038;7.006;2022-12-20T06:02:47;574.87;;;146.40;;
4202;SDS011;2115;51.038;7.006;2022-12-20T06:05:12;556.07;;;137.47;;
4202;SDS011;2115;51.038;7.006;2022-12-20T06:07:37;560.73;;;142.70;;
4202;SDS011;2115;51.038;7.006;2022-12-20T06:10:03;565.40;;;145.40;;
4202;SDS011;2115;51.038;7.006;2022-12-20T06:12:28;565.97;;;145.23;;
4202;SDS011;2115;51.038;7.006;2022-12-20T06:14:54;560.03;;;141.43;;
4202;SDS011;2115;51.038;7.006;2022-12-20T06:17:19;561.17;;;138.40;;
4202;SDS011;2115;51.038;7.006;2022-12-20T06:19:46;563.37;;;143.10;;
4202;SDS011;2115;51.038;7.006;2022-12-20T06:22:11;555.67;;;135.73;;
4202;SDS011;2115;51.038;7.006;2022-12-20T06:24:37;556.37;;;138.27;;
4202;SDS011;2115;51.038;7.006;2022-12-20T06:27:03;560.63;;;137.20;;
4202;SDS011;2115;51.038;7.006;2022-12-20T06:29:30;561.70;;;142.30;;
4202;SDS011;2115;51.038;7.006;2022-12-20T06:31:56;567.80;;;143.53;;
4202;SDS011;2115;51.038;7.006;2022-12-20T06:34:21;565.20;;;140.23;;
4202;SDS011;2115;51.038;7.006;2022-12-20T06:36:47;563.20;;;139.37;;
4202;SDS011;2115;51.038;7.006;2022-12-20T06:39:12;578.23;;;148.50;;
4202;SDS011;2115;51.038;7.006;2022-12-20T06:41:38;567.20;;;145.10;;
4202;SDS011;2115;51.038;7.006;2022-12-20T06:44:04;573.67;;;142.13;;
4202;SDS011;2115;51.038;7.006;2022-12-20T06:46:30;593.60;;;152.70;;
4202;SDS011;2115;51.038;7.006;2022-12-20T06:48:55;560.33;;;136.23;;
4202;SDS011;2115;51.038;7.006;2022-12-20T06:51:20;585.93;;;148.67;;
4202;SDS011;2115;51.038;7.006;2022-12-20T06:53:46;572.10;;;143.60;;
4202;SDS011;2115;51.038;7.006;2022-12-20T06:56:11;575.33;;;145.10;;
4202;SDS011;2115;51.038;7.006;2022-12-20T06:58:36;564.00;;;138.60;;
4202;SDS011;2115;51.038;7.006;2022-12-20T07:01:02;569.97;;;146.43;;
4202;SDS011;2115;51.038;7.006;2022-12-20T07:03:27;568.00;;;139.17;;
4202;SDS011;2115;51.038;7.006;2022-12-20T07:05:53;565.03;;;138.40;;
4202;SDS011;2115;51.038;7.006;2022-12-20T07:08:19;572.20;;;142.90;;
4202;SDS011;2115;51.038;7.006;2022-12-20T07:10:45;566.07;;;142.97;;
4202;SDS011;2115;51.038;7.006;2022-12-20T07:13:11;562.07;;;135.63;;
4202;SDS011;2115;51.038;7.006;2022-12-20T07:15:36;563.67;;;143.97;;
4202;SDS011;2115;51.038;7.006;2022-12-20T07:18:01;565.60;;;145.83;;
4202;SDS011;2115;51.038;7.006;2022-12-20T07:20:27;565.67;;;138.07;;
4202;SDS011;2115;51.038;7.006;2022-12-20T07:22:52;562.57;;;135.70;;
4202;SDS011;2115;51.038;7.006;2022-12-20T07:25:18;564.87;;;137.13;;
4202;SDS011;2115;51.038;7.006;2022-12-20T07:27:45;566.50;;;141.67;;
4202;SDS011;2115;51.038;7.006;2022-12-20T07:30:12;568.57;;;139.10;;
4202;SDS011;2115;51.038;7.006;2022-12-20T07:32:37;560.67;;;135.60;;
4202;SDS011;2115;51.038;7.006;2022-12-20T07:35:03;563.70;;;138.07;;
4202;SDS011;2115;51.038;7.006;2022-12-20T07:37:28;562.77;;;140.30;;
4202;SDS011;2115;51.038;7.006;2022-12-20T07:39:53;565.40;;;142.60;;
4202;SDS011;2115;51.038;7.006;2022-12-20T07:42:19;564.07;;;138.40;;
4202;SDS011;2115;51.038;7.006;2022-12-20T07:44:44;567.57;;;141.80;;
4202;SDS011;2115;51.038;7.006;2022-12-20T07:47:11;564.97;;;136.60;;
4202;SDS011;2115;51.038;7.006;2022-12-20T07:49:37;566.07;;;140.00;;
4202;SDS011;2115;51.038;7.006;2022-12-20T07:52:02;563.40;;;137.13;;
4202;SDS011;2115;51.038;7.006;2022-12-20T07:54:32;566.37;;;141.37;;
4202;SDS011;2115;51.038;7.006;2022-12-20T07:57:02;572.00;;;140.10;;
4202;SDS011;2115;51.038;7.006;2022-12-20T07:59:33;565.20;;;137.80;;
4202;SDS011;2115;51.038;7.006;2022-12-20T08:02:01;584.87;;;147.23;;
4202;SDS011;2115;51.038;7.006;2022-12-20T08:04:27;566.67;;;138.90;;
4202;SDS011;2115;51.038;7.006;2022-12-20T08:06:55;569.07;;;143.63;;
4202;SDS011;2115;51.038;7.006;2022-12-20T08:09:21;574.53;;;144.30;;
4202;SDS011;2115;51.038;7.006;2022-12-20T08:11:47;583.00;;;146.30;;
4202;SDS011;2115;51.038;7.006;2022-12-20T08:14:14;567.77;;;144.60;;
4202;SDS011;2115;51.038;7.006;2022-12-20T08:16:41;562.67;;;136.90;;
4202;SDS011;2115;51.038;7.006;2022-12-20T08:19:07;583.03;;;147.73;;
4202;SDS011;2115;51.038;7.006;2022-12-20T08:21:33;565.47;;;139.73;;
4202;SDS011;2115;51.038;7.006;2022-12-20T08:23:58;564.27;;;139.93;;
4202;SDS011;2115;51.038;7.006;2022-12-20T08:26:23;569.37;;;142.07;;
4202;SDS011;2115;51.038;7.006;2022-12-20T08:28:49;564.20;;;135.73;;
4202;SDS011;2115;51.038;7.006;2022-12-20T08:31:14;564.90;;;138.63;;
4202;SDS011;2115;51.038;7.006;2022-12-20T08:33:39;579.27;;;144.23;;
4202;SDS011;2115;51.038;7.006;2022-12-20T08:36:06;574.47;;;142.90;;
4202;SDS011;2115;51.038;7.006;2022-12-20T08:38:33;574.60;;;140.30;;
4202;SDS011;2115;51.038;7.006;2022-12-20T08:41:03;576.80;;;137.67;;
4202;SDS011;2115;51.038;7.006;2022-12-20T08:43:31;583.07;;;146.47;;
4202;SDS011;2115;51.038;7.006;2022-12-20T08:45:57;574.50;;;139.90;;
4202;SDS011;2115;51.038;7.006;2022-12-20T08:48:22;571.90;;;139.43;;
4202;SDS011;2115;51.038;7.006;2022-12-20T08:50:54;582.33;;;142.20;;
4202;SDS011;2115;51.038;7.006;2022-12-20T08:53:21;588.07;;;149.63;;
4202;SDS011;2115;51.038;7.006;2022-12-20T08:55:46;579.87;;;147.67;;
4202;SDS011;2115;51.038;7.006;2022-12-20T08:58:12;573.87;;;139.73;;
4202;SDS011;2115;51.038;7.006;2022-12-20T09:00:37;570.33;;;134.87;;
4202;SDS011;2115;51.038;7.006;2022-12-20T09:03:02;573.87;;;142.20;;
4202;SDS011;2115;51.038;7.006;2022-12-20T09:05:28;581.87;;;142.53;;
4202;SDS011;2115;51.038;7.006;2022-12-20T09:07:53;572.67;;;136.83;;
4202;SDS011;2115;51.038;7.006;2022-12-20T09:10:18;574.57;;;141.03;;
4202;SDS011;2115;51.038;7.006;2022-12-20T09:12:44;576.60;;;140.60;;
4202;SDS011;2115;51.038;7.006;2022-12-20T09:15:09;576.77;;;139.60;;
4202;SDS011;2115;51.038;7.006;2022-12-20T09:17:35;576.43;;;144.27;;
4202;SDS011;2115;51.038;7.006;2022-12-20T09:20:00;581.37;;;141.87;;
4202;SDS011;2115;51.038;7.006;2022-12-20T09:22:27;589.90;;;146.87;;
4202;SDS011;2115;51.038;7.006;2022-12-20T09:24:53;570.97;;;137.73;;
4202;SDS011;2115;51.038;7.006;2022-12-20T09:27:19;571.30;;;137.67;;
4202;SDS011;2115;51.038;7.006;2022-12-20T09:29:44;569.27;;;140.50;;
4202;SDS011;2115;51.038;7.006;2022-12-20T09:32:09;582.10;;;147.30;;
4202;SDS011;2115;51.038;7.006;2022-12-20T09:34:35;580.70;;;145.93;;
4202;SDS011;2115;51.038;7.006;2022-12-20T09:37:00;573.63;;;145.80;;
4202;SDS011;2115;51.038;7.006;2022-12-20T09:39:26;572.07;;;139.10;;
4202;SDS011;2115;51.038;7.006;2022-12-20T09:41:51;586.93;;;151.50;;
4202;SDS011;2115;51.038;7.006;2022-12-20T09:46:50;571.87;;;138.03;;
4202;SDS011;2115;51.038;7.006;2022-12-20T09:49:18;578.07;;;147.13;;
4202;SDS011;2115;51.038;7.006;2022-12-20T09:57:41;569.53;;;139.87;;
4202;SDS011;2115;51.038;7.006;2022-12-20T10:00:15;569.93;;;138.27;;
4202;SDS011;2115;51.038;7.006;2022-12-20T10:02:41;575.47;;;140.53;;
4202;SDS011;2115;51.038;7.006;2022-12-20T10:05:31;582.50;;;145.67;;
4202;SDS011;2115;51.038;7.006;2022-12-20T10:08:03;572.00;;;140.37;;
4202;SDS011;2115;51.038;7.006;2022-12-20T10:10:54;570.80;;;140.97;;
4202;SDS011;2115;51.038;7.006;2022-12-20T10:13:24;580.57;;;149.33;;
4202;SDS011;2115;51.038;7.006;2022-12-20T10:16:30;594.13;;;153.27;;
4202;SDS011;2115;51.038;7.006;2022-12-20T10:22:10;590.50;;;152.70;;
4202;SDS011;2115;51.038;7.006;2022-12-20T10:24:39;569.60;;;138.23;;
4202;SDS011;2115;51.038;7.006;2022-12-20T10:27:16;574.57;;;147.50;;
4202;SDS011;2115;51.038;7.006;2022-12-20T10:29:43;576.47;;;146.27;;
4202;SDS011;2115;51.038;7.006;2022-12-20T10:32:19;569.70;;;143.33;;
4202;SDS011;2115;51.038;7.006;2022-12-20T10:40:27;590.47;;;148.30;;
4202;SDS011;2115;51.038;7.006;2022-12-20T10:42:57;581.57;;;146.60;;
4202;SDS011;2115;51.038;7.006;2022-12-20T10:45:28;577.57;;;145.87;;
4202;SDS011;2115;51.038;7.006;2022-12-20T10:47:58;584.80;;;146.97;;
4202;SDS011;2115;51.038;7.006;2022-12-20T10:50:25;586.57;;;150.10;;
4202;SDS011;2115;51.038;7.006;2022-12-20T10:53:01;598.50;;;155.93;;
4202;SDS011;2115;51.038;7.006;2022-12-20T10:55:39;579.00;;;147.13;;
4202;SDS011;2115;51.038;7.006;2022-12-20T11:00:37;581.10;;;148.20;;
4202;SDS011;2115;51.038;7.006;2022-12-20T11:05:55;583.57;;;149.57;;
4202;SDS011;2115;51.038;7.006;2022-12-20T11:08:24;582.13;;;141.73;;
4202;SDS011;2115;51.038;7.006;2022-12-20T11:11:08;583.50;;;148.47;;
4202;SDS011;2115;51.038;7.006;2022-12-20T11:13:36;589.90;;;150.47;;
4202;SDS011;2115;51.038;7.006;2022-12-20T11:16:02;589.80;;;148.10;;
4202;SDS011;2115;51.038;7.006;2022-12-20T11:34:39;587.87;;;148.87;;
4202;SDS011;2115;51.038;7.006;2022-12-20T11:56:22;597.77;;;154.20;;
4202;SDS011;2115;51.038;7.006;2022-12-20T11:59:04;598.17;;;154.17;;
4202;SDS011;2115;51.038;7.006;2022-12-20T12:04:30;599.63;;;157.87;;
4202;SDS011;2115;51.038;7.006;2022-12-20T12:07:01;608.10;;;168.67;;
4202;SDS011;2115;51.038;7.006;2022-12-20T12:09:32;603.30;;;158.50;;
4202;SDS011;2115;51.038;7.006;2022-12-20T12:12:02;606.57;;;158.17;;
4202;SDS011;2115;51.038;7.006;2022-12-20T12:17:20;597.87;;;152.30;;
4202;SDS011;2115;51.038;7.006;2022-12-20T12:23:16;600.47;;;157.13;;
4202;SDS011;2115;51.038;7.006;2022-12-20T12:25:45;598.60;;;154.20;;
4202;SDS011;2115;51.038;7.006;2022-12-20T12:28:11;602.27;;;159.97;;
4202;SDS011;2115;51.038;7.006;2022-12-20T12:30:38;598.00;;;154.67;;
4202;SDS011;2115;51.038;7.006;2022-12-20T12:33:10;596.47;;;156.67;;
4202;SDS011;2115;51.038;7.006;2022-12-20T12:47:04;590.97;;;157.10;;
4202;SDS011;2115;51.038;7.006;2022-12-20T12:49:32;591.90;;;157.73;;
4202;SDS011;2115;51.038;7.006;2022-12-20T12:51:58;592.67;;;158.73;;
4202;SDS011;2115;51.038;7.006;2022-12-20T12:54:26;590.07;;;152.67;;
4202;SDS011;2115;51.038;7.006;2022-12-20T12:56:58;600.07;;;157.57;;
4202;SDS011;2115;51.038;7.006;2022-12-20T13:10:03;596.27;;;155.87;;
4202;SDS011;2115;51.038;7.006;2022-12-20T13:17:52;599.47;;;158.20;;
4202;SDS011;2115;51.038;7.006;2022-12-20T13:20:37;605.40;;;164.90;;
4202;SDS011;2115;51.038;7.006;2022-12-20T13:25:32;594.77;;;155.60;;
4202;SDS011;2115;51.038;7.006;2022-12-20T13:33:22;588.20;;;152.73;;
4202;SDS011;2115;51.038;7.006;2022-12-20T13:35:59;587.10;;;150.00;;
4202;SDS011;2115;51.038;7.006;2022-12-20T13:41:11;585.17;;;154.23;;
4202;SDS011;2115;51.038;7.006;2022-12-20T13:43:56;587.57;;;151.50;;
4202;SDS011;2115;51.038;7.006;2022-12-20T13:49:11;592.90;;;155.20;;
4202;SDS011;2115;51.038;7.006;2022-12-20T13:51:41;612.37;;;162.97;;
4202;SDS011;2115;51.038;7.006;2022-12-20T13:54:07;585.23;;;149.17;;
4202;SDS011;2115;51.038;7.006;2022-12-20T13:59:16;584.13;;;149.73;;
4202;SDS011;2115;51.038;7.006;2022-12-20T14:01:55;581.37;;;153.70;;
4202;SDS011;2115;51.038;7.006;2022-12-20T14:04:23;589.97;;;155.80;;
4202;SDS011;2115;51.038;7.006;2022-12-20T14:06:57;583.23;;;149.73;;
4202;SDS011;2115;51.038;7.006;2022-12-20T14:11:54;579.27;;;151.63;;
4202;SDS011;2115;51.038;7.006;2022-12-20T14:14:27;581.33;;;147.73;;
4202;SDS011;2115;51.038;7.006;2022-12-20T14:16:53;586.10;;;154.10;;
4202;SDS011;2115;51.038;7.006;2022-12-20T14:19:18;591.67;;;148.50;;
4202;SDS011;2115;51.038;7.006;2022-12-20T14:21:44;588.73;;;151.10;;
4202;SDS011;2115;51.038;7.006;2022-12-20T14:24:13;590.27;;;149.07;;
4202;SDS011;2115;51.038;7.006;2022-12-20T14:26:42;581.77;;;146.27;;
4202;SDS011;2115;51.038;7.006;2022-12-20T14:29:14;582.60;;;148.77;;
4202;SDS011;2115;51.038;7.006;2022-12-20T14:31:42;593.93;;;151.80;;
4202;SDS011;2115;51.038;7.006;2022-12-20T14:36:38;578.07;;;144.07;;
4202;SDS011;2115;51.038;7.006;2022-12-20T14:41:59;585.30;;;148.30;;
4202;SDS011;2115;51.038;7.006;2022-12-20T14:44:31;574.60;;;144.60;;
4202;SDS011;2115;51.038;7.006;2022-12-20T14:47:04;582.53;;;151.87;;
4202;SDS011;2115;51.038;7.006;2022-12-20T14:49:39;584.57;;;154.17;;
4202;SDS011;2115;51.038;7.006;2022-12-20T14:54:49;582.60;;;152.40;;
4202;SDS011;2115;51.038;7.006;2022-12-20T14:57:22;575.80;;;146.77;;
4202;SDS011;2115;51.038;7.006;2022-12-20T14:59:58;582.30;;;148.60;;
4202;SDS011;2115;51.038;7.006;2022-12-20T15:13:21;581.70;;;152.80;;
4202;SDS011;2115;51.038;7.006;2022-12-20T15:15:49;579.30;;;149.57;;
4202;SDS011;2115;51.038;7.006;2022-12-20T15:18:16;579.07;;;146.50;;
4202;SDS011;2115;51.038;7.006;2022-12-20T15:20:43;599.40;;;160.33;;
4202;SDS011;2115;51.038;7.006;2022-12-20T15:23:11;596.70;;;157.47;;
4202;SDS011;2115;51.038;7.006;2022-12-20T15:25:38;584.23;;;150.70;;
4202;SDS011;2115;51.038;7.006;2022-12-20T15:28:09;591.70;;;155.17;;
4202;SDS011;2115;51.038;7.006;2022-12-20T15:30:37;582.33;;;149.80;;
4202;SDS011;2115;51.038;7.006;2022-12-20T15:33:03;590.27;;;154.87;;
4202;SDS011;2115;51.038;7.006;2022-12-20T15:35:29;586.43;;;151.40;;
4202;SDS011;2115;51.038;7.006;2022-12-20T15:37:55;582.07;;;149.40;;
4202;SDS011;2115;51.038;7.006;2022-12-20T15:40:20;582.80;;;150.30;;
4202;SDS011;2115;51.038;7.006;2022-12-20T15:42:45;602.87;;;161.53;;
4202;SDS011;2115;51.038;7.006;2022-12-20T15:45:12;580.90;;;150.27;;
4202;SDS011;2115;51.038;7.006;2022-12-20T15:47:38;598.03;;;168.03;;
4202;SDS011;2115;51.038;7.006;2022-12-20T15:50:03;584.70;;;155.97;;
4202;SDS011;2115;51.038;7.006;2022-12-20T15:52:29;586.37;;;154.80;;
4202;SDS011;2115;51.038;7.006;2022-12-20T15:54:55;573.50;;;144.30;;
4202;SDS011;2115;51.038;7.006;2022-12-20T15:57:21;591.73;;;154.80;;
4202;SDS011;2115;51.038;7.006;2022-12-20T15:59:46;581.23;;;149.40;;
4202;SDS011;2115;51.038;7.006;2022-12-20T16:02:16;582.87;;;154.43;;
4202;SDS011;2115;51.038;7.006;2022-12-20T16:04:45;577.43;;;148.17;;
4202;SDS011;2115;51.038;7.006;2022-12-20T16:07:10;573.50;;;147.57;;
4202;SDS011;2115;51.038;7.006;2022-12-20T16:09:36;579.00;;;151.70;;
4202;SDS011;2115;51.038;7.006;2022-12-20T16:12:02;574.90;;;148.37;;
4202;SDS011;2115;51.038;7.006;2022-12-20T16:14:27;583.77;;;151.77;;
4202;SDS011;2115;51.038;7.006;2022-12-20T16:16:53;571.63;;;145.57;;
4202;SDS011;2115;51.038;7.006;2022-12-20T16:19:18;579.03;;;149.17;;
4202;SDS011;2115;51.038;7.006;2022-12-20T16:21:47;576.93;;;154.00;;
4202;SDS011;2115;51.038;7.006;2022-12-20T16:24:15;565.97;;;143.37;;
4202;SDS011;2115;51.038;7.006;2022-12-20T16:26:41;578.50;;;151.40;;
4202;SDS011;2115;51.038;7.006;2022-12-20T16:29:07;585.60;;;157.27;;
4202;SDS011;2115;51.038;7.006;2022-12-20T16:31:33;570.47;;;145.60;;
4202;SDS011;2115;51.038;7.006;2022-12-20T16:34:04;583.60;;;150.43;;
4202;SDS011;2115;51.038;7.006;2022-12-20T16:36:39;566.07;;;141.40;;
4202;SDS011;2115;51.038;7.006;2022-12-20T16:39:05;565.93;;;141.13;;
4202;SDS011;2115;51.038;7.006;2022-12-20T16:41:31;573.57;;;149.00;;
4202;SDS011;2115;51.038;7.006;2022-12-20T16:43:57;573.33;;;144.23;;
4202;SDS011;2115;51.038;7.006;2022-12-20T16:46:25;571.53;;;144.30;;
4202;SDS011;2115;51.038;7.006;2022-12-20T16:48:53;571.40;;;142.50;;
4202;SDS011;2115;51.038;7.006;2022-12-20T16:51:26;580.50;;;146.77;;
4202;SDS011;2115;51.038;7.006;2022-12-20T16:53:55;573.23;;;147.23;;
4202;SDS011;2115;51.038;7.006;2022-12-20T16:56:22;572.80;;;147.47;;
4202;SDS011;2115;51.038;7.006;2022-12-20T16:58:48;569.33;;;142.27;;